sensor_id;sensor_type;location;lat;lon;timestamp;P1;durP1;ratioP1;P2;durP2;ratioP2
74044;SDS011;62389;51.412;5.436;2023-07-29T00:00:19;6.25;;;2.42;;
74044;SDS011;62389;51.412;5.436;2023-07-29T00:02:44;13.52;;;3.80;;
74044;SDS011;62389;51.412;5.436;2023-07-29T00:05:10;5.90;;;2.95;;
74044;SDS011;62389;51.412;5.436;2023-07-29T00:07:36;5.40;;;2.95;;
74044;SDS011;62389;51.412;5.436;2023-07-29T00:10:02;6.63;;;2.95;;
74044;SDS011;62389;51.412;5.436;2023-07-29T00:12:28;5.78;;;3.22;;
74044;SDS011;62389;51.412;5.436;2023-07-29T00:14:53;6.32;;;3.00;;
74044;SDS011;62389;51.412;5.436;2023-07-29T00:17:19;6.03;;;3.22;;
74044;SDS011;62389;51.412;5.436;2023-07-29T00:19:45;4.57;;;3.08;;
74044;SDS011;62389;51.412;5.436;2023-07-29T00:22:11;4.72;;;2.90;;
74044;SDS011;62389;51.412;5.436;2023-07-29T00:24:36;5.65;;;3.67;;
74044;SDS011;62389;51.412;5.436;2023-07-29T00:27:02;5.68;;;3.17;;
74044;SDS011;62389;51.412;5.436;2023-07-29T00:29:27;7.22;;;3.90;;
74044;SDS011;62389;51.412;5.436;2023-07-29T00:31:53;6.80;;;3.67;;
74044;SDS011;62389;51.412;5.436;2023-07-29T00:34:18;7.30;;;3.10;;
74044;SDS011;62389;51.412;5.436;2023-07-29T00:36:44;6.32;;;3.30;;
74044;SDS011;62389;51.412;5.436;2023-07-29T00:39:10;6.75;;;4.03;;
74044;SDS011;62389;51.412;5.436;2023-07-29T00:41:36;6.07;;;3.53;;
74044;SDS011;62389;51.412;5.436;2023-07-29T00:44:01;6.13;;;3.50;;
74044;SDS011;62389;51.412;5.436;2023-07-29T00:46:27;5.43;;;3.30;;
74044;SDS011;62389;51.412;5.436;2023-07-29T00:48:53;5.45;;;3.40;;
74044;SDS011;62389;51.412;5.436;2023-07-29T00:51:19;7.53;;;3.20;;
74044;SDS011;62389;51.412;5.436;2023-07-29T00:53:44;8.18;;;3.70;;
74044;SDS011;62389;51.412;5.436;2023-07-29T00:56:10;5.50;;;3.60;;
74044;SDS011;62389;51.412;5.436;2023-07-29T00:58:36;4.95;;;3.47;;
74044;SDS011;62389;51.412;5.436;2023-07-29T01:01:01;7.53;;;3.30;;
74044;SDS011;62389;51.412;5.436;2023-07-29T01:03:26;6.43;;;3.47;;
74044;SDS011;62389;51.412;5.436;2023-07-29T01:05:59;6.22;;;3.35;;
74044;SDS011;62389;51.412;5.436;2023-07-29T01:08:45;5.90;;;3.35;;
74044;SDS011;62389;51.412;5.436;2023-07-29T01:11:32;4.50;;;2.90;;
74044;SDS011;62389;51.412;5.436;2023-07-29T01:14:12;4.50;;;3.00;;
74044;SDS011;62389;51.412;5.436;2023-07-29T01:16:47;5.63;;;3.25;;
74044;SDS011;62389;51.412;5.436;2023-07-29T01:22:11;6.70;;;3.42;;
74044;SDS011;62389;51.412;5.436;2023-07-29T01:27:04;5.55;;;2.90;;
74044;SDS011;62389;51.412;5.436;2023-07-29T01:29:30;5.93;;;2.70;;
74044;SDS011;62389;51.412;5.436;2023-07-29T01:31:56;4.78;;;2.95;;
74044;SDS011;62389;51.412;5.436;2023-07-29T01:37:04;3.78;;;2.42;;
74044;SDS011;62389;51.412;5.436;2023-07-29T01:39:34;4.25;;;2.42;;
74044;SDS011;62389;51.412;5.436;2023-07-29T01:42:02;4.25;;;2.80;;
74044;SDS011;62389;51.412;5.436;2023-07-29T01:44:27;3.95;;;2.72;;
74044;SDS011;62389;51.412;5.436;2023-07-29T01:46:55;5.20;;;2.80;;
74044;SDS011;62389;51.412;5.436;2023-07-29T01:49:22;5.28;;;3.03;;
74044;SDS011;62389;51.412;5.436;2023-07-29T01:51:47;4.65;;;2.90;;
74044;SDS011;62389;51.412;5.436;2023-07-29T01:54:12;4.93;;;3.20;;
74044;SDS011;62389;51.412;5.436;2023-07-29T01:56:38;4.57;;;2.92;;
74044;SDS011;62389;51.412;5.436;2023-07-29T01:59:03;6.22;;;3.50;;
74044;SDS011;62389;51.412;5.436;2023-07-29T02:01:28;5.88;;;3.65;;
74044;SDS011;62389;51.412;5.436;2023-07-29T02:03:54;4.93;;;2.97;;
74044;SDS011;62389;51.412;5.436;2023-07-29T02:06:22;6.47;;;3.45;;
74044;SDS011;62389;51.412;5.436;2023-07-29T02:08:47;8.57;;;3.67;;
74044;SDS011;62389;51.412;5.436;2023-07-29T02:11:13;5.72;;;3.72;;
74044;SDS011;62389;51.412;5.436;2023-07-29T02:13:38;7.95;;;3.75;;
74044;SDS011;62389;51.412;5.436;2023-07-29T02:16:04;8.88;;;3.97;;
74044;SDS011;62389;51.412;5.436;2023-07-29T02:18:29;5.47;;;3.80;;
74044;SDS011;62389;51.412;5.436;2023-07-29T02:20:54;6.68;;;4.03;;
74044;SDS011;62389;51.412;5.436;2023-07-29T02:23:20;8.82;;;4.20;;
74044;SDS011;62389;51.412;5.436;2023-07-29T02:25:45;6.47;;;3.72;;
74044;SDS011;62389;51.412;5.436;2023-07-29T02:28:10;7.60;;;4.10;;
74044;SDS011;62389;51.412;5.436;2023-07-29T02:30:36;6.10;;;3.83;;
74044;SDS011;62389;51.412;5.436;2023-07-29T02:33:02;5.97;;;3.72;;
74044;SDS011;62389;51.412;5.436;2023-07-29T02:35:27;7.05;;;3.92;;
74044;SDS011;62389;51.412;5.436;2023-07-29T02:37:53;5.93;;;3.47;;
74044;SDS011;62389;51.412;5.436;2023-07-29T02:40:18;8.15;;;3.67;;
74044;SDS011;62389;51.412;5.436;2023-07-29T02:42:45;6.55;;;3.20;;
74044;SDS011;62389;51.412;5.436;2023-07-29T02:45:11;7.75;;;3.40;;
74044;SDS011;62389;51.412;5.436;2023-07-29T02:47:39;5.70;;;3.10;;
74044;SDS011;62389;51.412;5.436;2023-07-29T02:50:04;6.00;;;3.28;;
74044;SDS011;62389;51.412;5.436;2023-07-29T02:52:30;6.28;;;3.28;;
74044;SDS011;62389;51.412;5.436;2023-07-29T02:54:56;5.43;;;3.13;;
74044;SDS011;62389;51.412;5.436;2023-07-29T02:57:21;6.38;;;3.15;;
74044;SDS011;62389;51.412;5.436;2023-07-29T02:59:46;5.55;;;3.03;;
74044;SDS011;62389;51.412;5.436;2023-07-29T03:02:12;5.38;;;2.88;;
74044;SDS011;62389;51.412;5.436;2023-07-29T03:04:37;4.55;;;2.85;;
74044;SDS011;62389;51.412;5.436;2023-07-29T03:07:02;4.68;;;2.72;;
74044;SDS011;62389;51.412;5.436;2023-07-29T03:09:28;5.22;;;2.33;;
74044;SDS011;62389;51.412;5.436;2023-07-29T03:11:53;4.75;;;2.75;;
74044;SDS011;62389;51.412;5.436;2023-07-29T03:14:19;4.38;;;2.63;;
74044;SDS011;62389;51.412;5.436;2023-07-29T03:16:45;4.00;;;2.40;;
74044;SDS011;62389;51.412;5.436;2023-07-29T03:19:11;4.65;;;2.42;;
74044;SDS011;62389;51.412;5.436;2023-07-29T03:21:37;5.43;;;2.80;;
74044;SDS011;62389;51.412;5.436;2023-07-29T03:24:02;4.25;;;2.50;;
74044;SDS011;62389;51.412;5.436;2023-07-29T03:26:28;7.75;;;2.80;;
74044;SDS011;62389;51.412;5.436;2023-07-29T03:28:53;5.15;;;3.28;;
74044;SDS011;62389;51.412;5.436;2023-07-29T03:31:18;4.32;;;2.45;;
74044;SDS011;62389;51.412;5.436;2023-07-29T03:33:44;5.10;;;2.70;;
74044;SDS011;62389;51.412;5.436;2023-07-29T03:36:09;6.07;;;2.40;;
74044;SDS011;62389;51.412;5.436;2023-07-29T03:38:35;4.63;;;2.70;;
74044;SDS011;62389;51.412;5.436;2023-07-29T03:41:04;5.32;;;2.70;;
74044;SDS011;62389;51.412;5.436;2023-07-29T03:43:30;5.70;;;2.58;;
74044;SDS011;62389;51.412;5.436;2023-07-29T03:45:55;6.07;;;3.05;;
74044;SDS011;62389;51.412;5.436;2023-07-29T03:48:20;5.68;;;2.95;;
74044;SDS011;62389;51.412;5.436;2023-07-29T03:50:46;6.60;;;2.42;;
74044;SDS011;62389;51.412;5.436;2023-07-29T03:53:11;6.72;;;2.65;;
74044;SDS011;62389;51.412;5.436;2023-07-29T03:55:37;6.97;;;2.50;;
74044;SDS011;62389;51.412;5.436;2023-07-29T03:58:02;5.15;;;2.42;;
74044;SDS011;62389;51.412;5.436;2023-07-29T04:00:27;4.50;;;2.78;;
74044;SDS011;62389;51.412;5.436;2023-07-29T04:02:53;3.40;;;2.03;;
74044;SDS011;62389;51.412;5.436;2023-07-29T04:05:18;4.28;;;2.00;;
74044;SDS011;62389;51.412;5.436;2023-07-29T04:07:44;4.07;;;2.13;;
74044;SDS011;62389;51.412;5.436;2023-07-29T04:10:10;3.63;;;2.10;;
74044;SDS011;62389;51.412;5.436;2023-07-29T04:12:36;3.53;;;2.03;;
74044;SDS011;62389;51.412;5.436;2023-07-29T04:15:01;3.95;;;2.40;;
74044;SDS011;62389;51.412;5.436;2023-07-29T04:17:27;4.63;;;2.28;;
74044;SDS011;62389;51.412;5.436;2023-07-29T04:19:52;4.43;;;2.05;;
74044;SDS011;62389;51.412;5.436;2023-07-29T04:22:18;4.20;;;2.13;;
74044;SDS011;62389;51.412;5.436;2023-07-29T04:24:43;2.83;;;1.95;;
74044;SDS011;62389;51.412;5.436;2023-07-29T04:27:09;3.63;;;2.30;;
74044;SDS011;62389;51.412;5.436;2023-07-29T04:29:34;4.95;;;2.05;;
74044;SDS011;62389;51.412;5.436;2023-07-29T04:32:03;3.63;;;1.80;;
74044;SDS011;62389;51.412;5.436;2023-07-29T04:34:29;4.45;;;2.20;;
74044;SDS011;62389;51.412;5.436;2023-07-29T04:36:54;6.78;;;2.08;;
74044;SDS011;62389;51.412;5.436;2023-07-29T04:39:19;4.18;;;2.00;;
74044;SDS011;62389;51.412;5.436;2023-07-29T04:41:45;4.07;;;1.75;;
74044;SDS011;62389;51.412;5.436;2023-07-29T04:44:10;4.28;;;2.00;;
74044;SDS011;62389;51.412;5.436;2023-07-29T04:46:36;3.47;;;1.98;;
74044;SDS011;62389;51.412;5.436;2023-07-29T04:49:02;2.88;;;1.85;;
74044;SDS011;62389;51.412;5.436;2023-07-29T04:51:27;4.60;;;2.10;;
74044;SDS011;62389;51.412;5.436;2023-07-29T04:53:53;4.00;;;1.63;;
74044;SDS011;62389;51.412;5.436;2023-07-29T04:56:19;6.22;;;2.05;;
74044;SDS011;62389;51.412;5.436;2023-07-29T04:58:44;3.65;;;1.80;;
74044;SDS011;62389;51.412;5.436;2023-07-29T05:01:10;6.00;;;2.63;;
74044;SDS011;62389;51.412;5.436;2023-07-29T05:03:35;3.78;;;1.80;;
74044;SDS011;62389;51.412;5.436;2023-07-29T05:06:02;3.85;;;1.75;;
74044;SDS011;62389;51.412;5.436;2023-07-29T05:08:27;5.38;;;1.80;;
74044;SDS011;62389;51.412;5.436;2023-07-29T05:10:53;5.30;;;2.10;;
74044;SDS011;62389;51.412;5.436;2023-07-29T05:13:20;3.45;;;2.05;;
74044;SDS011;62389;51.412;5.436;2023-07-29T05:15:47;3.47;;;2.00;;
74044;SDS011;62389;51.412;5.436;2023-07-29T05:18:12;3.70;;;1.50;;
74044;SDS011;62389;51.412;5.436;2023-07-29T05:20:38;3.42;;;1.60;;
74044;SDS011;62389;51.412;5.436;2023-07-29T05:23:03;3.15;;;1.58;;
74044;SDS011;62389;51.412;5.436;2023-07-29T05:25:29;5.05;;;1.60;;
74044;SDS011;62389;51.412;5.436;2023-07-29T05:27:54;4.38;;;1.70;;
74044;SDS011;62389;51.412;5.436;2023-07-29T05:30:20;4.03;;;1.55;;
74044;SDS011;62389;51.412;5.436;2023-07-29T05:32:45;4.80;;;1.98;;
74044;SDS011;62389;51.412;5.436;2023-07-29T05:35:10;2.92;;;1.60;;
74044;SDS011;62389;51.412;5.436;2023-07-29T05:37:37;2.40;;;1.30;;
74044;SDS011;62389;51.412;5.436;2023-07-29T05:40:04;4.78;;;1.45;;
74044;SDS011;62389;51.412;5.436;2023-07-29T05:42:30;3.78;;;1.58;;
74044;SDS011;62389;51.412;5.436;2023-07-29T05:44:56;4.95;;;1.70;;
74044;SDS011;62389;51.412;5.436;2023-07-29T05:47:21;3.83;;;1.92;;
74044;SDS011;62389;51.412;5.436;2023-07-29T05:49:46;3.72;;;1.63;;
74044;SDS011;62389;51.412;5.436;2023-07-29T05:52:12;2.85;;;1.50;;
74044;SDS011;62389;51.412;5.436;2023-07-29T05:54:37;4.55;;;1.85;;
74044;SDS011;62389;51.412;5.436;2023-07-29T05:57:02;4.43;;;1.98;;
74044;SDS011;62389;51.412;5.436;2023-07-29T05:59:28;6.45;;;2.10;;
74044;SDS011;62389;51.412;5.436;2023-07-29T06:01:54;5.20;;;1.80;;
74044;SDS011;62389;51.412;5.436;2023-07-29T06:04:20;3.38;;;1.90;;
74044;SDS011;62389;51.412;5.436;2023-07-29T06:06:45;3.80;;;1.83;;
74044;SDS011;62389;51.412;5.436;2023-07-29T06:09:10;2.75;;;1.55;;
74044;SDS011;62389;51.412;5.436;2023-07-29T06:11:36;3.78;;;1.50;;
74044;SDS011;62389;51.412;5.436;2023-07-29T06:14:01;4.32;;;1.60;;
74044;SDS011;62389;51.412;5.436;2023-07-29T06:16:26;4.38;;;1.50;;
74044;SDS011;62389;51.412;5.436;2023-07-29T06:18:52;2.85;;;1.52;;
74044;SDS011;62389;51.412;5.436;2023-07-29T06:21:17;2.22;;;1.30;;
74044;SDS011;62389;51.412;5.436;2023-07-29T06:23:44;2.70;;;1.30;;
74044;SDS011;62389;51.412;5.436;2023-07-29T06:26:10;1.92;;;1.13;;
74044;SDS011;62389;51.412;5.436;2023-07-29T06:28:36;2.53;;;1.25;;
74044;SDS011;62389;51.412;5.436;2023-07-29T06:31:01;2.90;;;1.40;;
74044;SDS011;62389;51.412;5.436;2023-07-29T06:33:26;2.65;;;1.35;;
74044;SDS011;62389;51.412;5.436;2023-07-29T06:35:52;3.38;;;1.27;;
74044;SDS011;62389;51.412;5.436;2023-07-29T06:38:17;2.70;;;1.30;;
74044;SDS011;62389;51.412;5.436;2023-07-29T06:40:46;3.83;;;1.50;;
74044;SDS011;62389;51.412;5.436;2023-07-29T06:43:12;2.85;;;1.40;;
74044;SDS011;62389;51.412;5.436;2023-07-29T06:45:38;2.10;;;1.20;;
74044;SDS011;62389;51.412;5.436;2023-07-29T06:48:03;2.75;;;1.50;;
74044;SDS011;62389;51.412;5.436;2023-07-29T06:50:29;3.85;;;1.70;;
74044;SDS011;62389;51.412;5.436;2023-07-29T06:52:54;4.80;;;1.27;;
74044;SDS011;62389;51.412;5.436;2023-07-29T06:55:19;4.45;;;1.30;;
74044;SDS011;62389;51.412;5.436;2023-07-29T06:57:45;2.92;;;1.27;;
74044;SDS011;62389;51.412;5.436;2023-07-29T07:00:10;3.58;;;1.60;;
74044;SDS011;62389;51.412;5.436;2023-07-29T07:02:35;3.83;;;1.10;;
74044;SDS011;62389;51.412;5.436;2023-07-29T07:05:01;3.50;;;1.50;;
74044;SDS011;62389;51.412;5.436;2023-07-29T07:07:26;2.80;;;1.38;;
74044;SDS011;62389;51.412;5.436;2023-07-29T07:09:51;3.70;;;1.10;;
74044;SDS011;62389;51.412;5.436;2023-07-29T07:12:17;2.67;;;1.50;;
74044;SDS011;62389;51.412;5.436;2023-07-29T07:14:42;4.05;;;1.48;;
74044;SDS011;62389;51.412;5.436;2023-07-29T07:17:07;3.38;;;1.63;;
74044;SDS011;62389;51.412;5.436;2023-07-29T07:19:33;3.25;;;1.33;;
74044;SDS011;62389;51.412;5.436;2023-07-29T07:21:58;4.03;;;1.13;;
74044;SDS011;62389;51.412;5.436;2023-07-29T07:24:23;1.75;;;0.90;;
74044;SDS011;62389;51.412;5.436;2023-07-29T07:26:49;3.40;;;1.30;;
74044;SDS011;62389;51.412;5.436;2023-07-29T07:29:14;3.65;;;1.13;;
74044;SDS011;62389;51.412;5.436;2023-07-29T07:31:40;2.83;;;1.30;;
74044;SDS011;62389;51.412;5.436;2023-07-29T07:34:05;3.67;;;1.27;;
74044;SDS011;62389;51.412;5.436;2023-07-29T07:36:30;2.53;;;1.10;;
74044;SDS011;62389;51.412;5.436;2023-07-29T07:38:56;2.10;;;1.10;;
74044;SDS011;62389;51.412;5.436;2023-07-29T07:41:21;2.58;;;0.95;;
74044;SDS011;62389;51.412;5.436;2023-07-29T07:43:47;2.53;;;1.20;;
74044;SDS011;62389;51.412;5.436;2023-07-29T07:46:12;2.30;;;1.50;;
74044;SDS011;62389;51.412;5.436;2023-07-29T07:48:38;3.25;;;1.02;;
74044;SDS011;62389;51.412;5.436;2023-07-29T07:51:10;2.78;;;1.30;;
74044;SDS011;62389;51.412;5.436;2023-07-29T07:53:38;3.22;;;1.02;;
74044;SDS011;62389;51.412;5.436;2023-07-29T07:56:05;3.30;;;1.20;;
74044;SDS011;62389;51.412;5.436;2023-07-29T07:58:30;2.20;;;1.10;;
74044;SDS011;62389;51.412;5.436;2023-07-29T08:01:05;2.90;;;1.20;;
74044;SDS011;62389;51.412;5.436;2023-07-29T08:03:32;2.90;;;1.25;;
74044;SDS011;62389;51.412;5.436;2023-07-29T08:05:58;2.97;;;1.10;;
74044;SDS011;62389;51.412;5.436;2023-07-29T08:08:24;2.97;;;1.33;;
74044;SDS011;62389;51.412;5.436;2023-07-29T08:10:51;2.38;;;1.33;;
74044;SDS011;62389;51.412;5.436;2023-07-29T08:13:19;3.35;;;1.27;;
74044;SDS011;62389;51.412;5.436;2023-07-29T08:15:47;2.40;;;1.17;;
74044;SDS011;62389;51.412;5.436;2023-07-29T08:18:14;3.35;;;1.10;;
74044;SDS011;62389;51.412;5.436;2023-07-29T08:20:39;3.30;;;1.30;;
74044;SDS011;62389;51.412;5.436;2023-07-29T08:23:04;2.25;;;1.20;;
74044;SDS011;62389;51.412;5.436;2023-07-29T08:25:30;2.17;;;0.90;;
74044;SDS011;62389;51.412;5.436;2023-07-29T08:27:56;3.95;;;1.25;;
74044;SDS011;62389;51.412;5.436;2023-07-29T08:30:21;2.17;;;1.27;;
74044;SDS011;62389;51.412;5.436;2023-07-29T08:32:47;2.03;;;1.20;;
74044;SDS011;62389;51.412;5.436;2023-07-29T08:35:12;2.83;;;1.33;;
74044;SDS011;62389;51.412;5.436;2023-07-29T08:37:38;3.65;;;1.00;;
74044;SDS011;62389;51.412;5.436;2023-07-29T08:40:03;1.50;;;0.90;;
74044;SDS011;62389;51.412;5.436;2023-07-29T08:42:31;4.32;;;1.13;;
74044;SDS011;62389;51.412;5.436;2023-07-29T08:44:58;3.15;;;1.00;;
74044;SDS011;62389;51.412;5.436;2023-07-29T08:47:31;2.08;;;1.10;;
74044;SDS011;62389;51.412;5.436;2023-07-29T08:49:56;1.80;;;0.90;;
74044;SDS011;62389;51.412;5.436;2023-07-29T08:52:23;3.28;;;1.00;;
74044;SDS011;62389;51.412;5.436;2023-07-29T08:57:14;1.65;;;0.85;;
74044;SDS011;62389;51.412;5.436;2023-07-29T08:59:40;2.17;;;1.08;;
74044;SDS011;62389;51.412;5.436;2023-07-29T09:02:06;2.45;;;0.93;;
74044;SDS011;62389;51.412;5.436;2023-07-29T09:04:32;2.08;;;1.02;;
74044;SDS011;62389;51.412;5.436;2023-07-29T09:06:57;2.35;;;0.90;;
74044;SDS011;62389;51.412;5.436;2023-07-29T09:11:50;2.42;;;0.90;;
74044;SDS011;62389;51.412;5.436;2023-07-29T09:14:15;2.80;;;0.98;;
74044;SDS011;62389;51.412;5.436;2023-07-29T09:16:41;2.58;;;1.00;;
74044;SDS011;62389;51.412;5.436;2023-07-29T09:19:06;2.97;;;1.00;;
74044;SDS011;62389;51.412;5.436;2023-07-29T09:21:32;2.70;;;1.00;;
74044;SDS011;62389;51.412;5.436;2023-07-29T09:23:58;2.20;;;0.98;;
74044;SDS011;62389;51.412;5.436;2023-07-29T09:26:29;3.17;;;1.05;;
74044;SDS011;62389;51.412;5.436;2023-07-29T09:28:55;2.20;;;0.80;;
74044;SDS011;62389;51.412;5.436;2023-07-29T09:31:22;2.53;;;1.00;;
74044;SDS011;62389;51.412;5.436;2023-07-29T09:33:49;2.28;;;1.00;;
74044;SDS011;62389;51.412;5.436;2023-07-29T09:36:15;2.80;;;1.10;;
74044;SDS011;62389;51.412;5.436;2023-07-29T09:38:41;1.63;;;0.82;;
74044;SDS011;62389;51.412;5.436;2023-07-29T09:41:06;2.60;;;1.08;;
74044;SDS011;62389;51.412;5.436;2023-07-29T09:43:32;1.48;;;0.77;;
74044;SDS011;62389;51.412;5.436;2023-07-29T09:45:59;1.90;;;1.10;;
74044;SDS011;62389;51.412;5.436;2023-07-29T09:48:26;1.88;;;0.93;;
74044;SDS011;62389;51.412;5.436;2023-07-29T09:50:53;1.95;;;1.05;;
74044;SDS011;62389;51.412;5.436;2023-07-29T09:53:19;2.90;;;1.00;;
74044;SDS011;62389;51.412;5.436;2023-07-29T09:55:47;1.90;;;1.00;;
74044;SDS011;62389;51.412;5.436;2023-07-29T09:58:15;2.85;;;1.05;;
74044;SDS011;62389;51.412;5.436;2023-07-29T10:00:50;2.65;;;1.23;;
74044;SDS011;62389;51.412;5.436;2023-07-29T10:03:16;2.85;;;1.10;;
74044;SDS011;62389;51.412;5.436;2023-07-29T10:05:43;3.28;;;1.25;;
74044;SDS011;62389;51.412;5.436;2023-07-29T10:10:35;2.25;;;1.10;;
74044;SDS011;62389;51.412;5.436;2023-07-29T10:13:01;2.55;;;1.20;;
74044;SDS011;62389;51.412;5.436;2023-07-29T10:15:27;2.20;;;1.40;;
74044;SDS011;62389;51.412;5.436;2023-07-29T10:17:54;2.28;;;1.20;;
74044;SDS011;62389;51.412;5.436;2023-07-29T10:20:20;2.55;;;1.00;;
74044;SDS011;62389;51.412;5.436;2023-07-29T10:22:46;3.03;;;1.00;;
74044;SDS011;62389;51.412;5.436;2023-07-29T10:25:15;2.72;;;1.02;;
74044;SDS011;62389;51.412;5.436;2023-07-29T10:27:48;1.90;;;1.00;;
74044;SDS011;62389;51.412;5.436;2023-07-29T10:30:17;2.78;;;1.13;;
74044;SDS011;62389;51.412;5.436;2023-07-29T10:32:43;2.33;;;1.20;;
74044;SDS011;62389;51.412;5.436;2023-07-29T10:35:11;2.95;;;0.98;;
74044;SDS011;62389;51.412;5.436;2023-07-29T10:37:37;2.08;;;0.98;;
74044;SDS011;62389;51.412;5.436;2023-07-29T10:42:33;3.40;;;1.10;;
74044;SDS011;62389;51.412;5.436;2023-07-29T10:44:58;2.50;;;1.17;;
74044;SDS011;62389;51.412;5.436;2023-07-29T10:47:26;3.08;;;1.20;;
74044;SDS011;62389;51.412;5.436;2023-07-29T10:49:53;2.72;;;1.40;;
74044;SDS011;62389;51.412;5.436;2023-07-29T10:55:00;3.22;;;1.23;;
74044;SDS011;62389;51.412;5.436;2023-07-29T10:57:31;2.20;;;1.13;;
74044;SDS011;62389;51.412;5.436;2023-07-29T11:00:00;1.80;;;1.10;;
74044;SDS011;62389;51.412;5.436;2023-07-29T11:02:29;2.05;;;1.15;;
74044;SDS011;62389;51.412;5.436;2023-07-29T11:04:56;2.30;;;1.30;;
74044;SDS011;62389;51.412;5.436;2023-07-29T11:07:22;2.03;;;1.00;;
74044;SDS011;62389;51.412;5.436;2023-07-29T11:09:52;3.30;;;1.23;;
74044;SDS011;62389;51.412;5.436;2023-07-29T11:15:03;2.58;;;1.40;;
74044;SDS011;62389;51.412;5.436;2023-07-29T11:17:35;2.53;;;1.30;;
74044;SDS011;62389;51.412;5.436;2023-07-29T11:20:02;5.47;;;1.67;;
74044;SDS011;62389;51.412;5.436;2023-07-29T11:22:29;3.28;;;1.35;;
74044;SDS011;62389;51.412;5.436;2023-07-29T11:24:55;2.30;;;1.42;;
74044;SDS011;62389;51.412;5.436;2023-07-29T11:27:20;5.93;;;1.65;;
74044;SDS011;62389;51.412;5.436;2023-07-29T11:29:46;2.45;;;1.40;;
74044;SDS011;62389;51.412;5.436;2023-07-29T11:32:12;6.57;;;1.80;;
74044;SDS011;62389;51.412;5.436;2023-07-29T11:34:38;4.05;;;1.80;;
74044;SDS011;62389;51.412;5.436;2023-07-29T11:37:05;5.38;;;2.00;;
74044;SDS011;62389;51.412;5.436;2023-07-29T11:39:39;4.97;;;1.80;;
74044;SDS011;62389;51.412;5.436;2023-07-29T11:42:05;3.78;;;1.52;;
74044;SDS011;62389;51.412;5.436;2023-07-29T11:44:30;6.55;;;1.92;;
74044;SDS011;62389;51.412;5.436;2023-07-29T11:46:56;2.80;;;1.70;;
74044;SDS011;62389;51.412;5.436;2023-07-29T11:49:21;3.60;;;1.63;;
74044;SDS011;62389;51.412;5.436;2023-07-29T11:51:46;2.78;;;1.70;;
74044;SDS011;62389;51.412;5.436;2023-07-29T11:54:12;3.45;;;1.70;;
74044;SDS011;62389;51.412;5.436;2023-07-29T11:56:37;2.70;;;1.73;;
74044;SDS011;62389;51.412;5.436;2023-07-29T11:59:03;3.80;;;1.98;;
74044;SDS011;62389;51.412;5.436;2023-07-29T12:01:28;3.13;;;1.80;;
74044;SDS011;62389;51.412;5.436;2023-07-29T12:03:55;3.28;;;1.75;;
74044;SDS011;62389;51.412;5.436;2023-07-29T12:06:22;3.15;;;1.52;;
74044;SDS011;62389;51.412;5.436;2023-07-29T12:08:50;4.68;;;2.00;;
74044;SDS011;62389;51.412;5.436;2023-07-29T12:11:15;3.53;;;1.80;;
74044;SDS011;62389;51.412;5.436;2023-07-29T12:13:41;3.47;;;2.30;;
74044;SDS011;62389;51.412;5.436;2023-07-29T12:16:07;5.18;;;2.15;;
74044;SDS011;62389;51.412;5.436;2023-07-29T12:18:32;4.60;;;2.05;;
74044;SDS011;62389;51.412;5.436;2023-07-29T12:20:58;3.00;;;2.20;;
74044;SDS011;62389;51.412;5.436;2023-07-29T12:23:24;4.10;;;2.05;;
74044;SDS011;62389;51.412;5.436;2023-07-29T12:25:56;4.68;;;1.98;;
74044;SDS011;62389;51.412;5.436;2023-07-29T12:28:23;4.10;;;2.60;;
74044;SDS011;62389;51.412;5.436;2023-07-29T12:30:53;3.85;;;2.35;;
74044;SDS011;62389;51.412;5.436;2023-07-29T12:35:56;2.65;;;1.27;;
74044;SDS011;62389;51.412;5.436;2023-07-29T12:38:22;6.82;;;1.58;;
74044;SDS011;62389;51.412;5.436;2023-07-29T12:40:47;3.40;;;0.85;;
74044;SDS011;62389;51.412;5.436;2023-07-29T12:43:12;3.30;;;1.20;;
74044;SDS011;62389;51.412;5.436;2023-07-29T12:45:38;3.28;;;1.02;;
74044;SDS011;62389;51.412;5.436;2023-07-29T12:48:06;3.10;;;1.25;;
74044;SDS011;62389;51.412;5.436;2023-07-29T12:50:31;2.63;;;0.90;;
74044;SDS011;62389;51.412;5.436;2023-07-29T12:52:57;4.03;;;0.90;;
74044;SDS011;62389;51.412;5.436;2023-07-29T12:55:22;3.85;;;1.00;;
74044;SDS011;62389;51.412;5.436;2023-07-29T12:57:48;2.90;;;0.90;;
74044;SDS011;62389;51.412;5.436;2023-07-29T13:00:13;1.70;;;0.90;;
74044;SDS011;62389;51.412;5.436;2023-07-29T13:02:38;2.08;;;1.15;;
74044;SDS011;62389;51.412;5.436;2023-07-29T13:05:04;3.10;;;1.20;;
74044;SDS011;62389;51.412;5.436;2023-07-29T13:09:56;2.33;;;1.05;;
74044;SDS011;62389;51.412;5.436;2023-07-29T13:12:21;2.55;;;1.27;;
74044;SDS011;62389;51.412;5.436;2023-07-29T13:14:47;3.03;;;1.50;;
74044;SDS011;62389;51.412;5.436;2023-07-29T13:17:12;2.65;;;1.20;;
74044;SDS011;62389;51.412;5.436;2023-07-29T13:19:37;3.10;;;1.30;;
74044;SDS011;62389;51.412;5.436;2023-07-29T13:22:03;2.65;;;1.50;;
74044;SDS011;62389;51.412;5.436;2023-07-29T13:24:28;2.78;;;1.63;;
74044;SDS011;62389;51.412;5.436;2023-07-29T13:26:54;2.47;;;1.50;;
74044;SDS011;62389;51.412;5.436;2023-07-29T13:29:19;6.03;;;1.63;;
74044;SDS011;62389;51.412;5.436;2023-07-29T13:31:44;3.03;;;1.77;;
74044;SDS011;62389;51.412;5.436;2023-07-29T13:34:10;3.90;;;1.60;;
74044;SDS011;62389;51.412;5.436;2023-07-29T13:36:35;2.10;;;1.40;;
74044;SDS011;62389;51.412;5.436;2023-07-29T13:39:00;2.75;;;1.40;;
74044;SDS011;62389;51.412;5.436;2023-07-29T13:41:26;2.85;;;1.52;;
74044;SDS011;62389;51.412;5.436;2023-07-29T13:43:51;4.38;;;1.70;;
74044;SDS011;62389;51.412;5.436;2023-07-29T13:46:16;4.45;;;1.73;;
74044;SDS011;62389;51.412;5.436;2023-07-29T13:48:45;3.85;;;1.63;;
74044;SDS011;62389;51.412;5.436;2023-07-29T13:51:10;3.60;;;1.67;;
74044;SDS011;62389;51.412;5.436;2023-07-29T13:53:35;3.08;;;1.70;;
74044;SDS011;62389;51.412;5.436;2023-07-29T13:56:01;2.85;;;1.60;;
74044;SDS011;62389;51.412;5.436;2023-07-29T13:58:26;4.07;;;1.70;;
74044;SDS011;62389;51.412;5.436;2023-07-29T14:00:51;4.07;;;1.95;;
74044;SDS011;62389;51.412;5.436;2023-07-29T14:03:17;2.90;;;1.60;;
74044;SDS011;62389;51.412;5.436;2023-07-29T14:05:42;4.22;;;1.88;;
74044;SDS011;62389;51.412;5.436;2023-07-29T14:08:07;2.70;;;1.70;;
74044;SDS011;62389;51.412;5.436;2023-07-29T14:10:33;3.53;;;1.75;;
74044;SDS011;62389;51.412;5.436;2023-07-29T14:12:58;3.53;;;1.77;;
74044;SDS011;62389;51.412;5.436;2023-07-29T14:15:23;3.30;;;2.00;;
74044;SDS011;62389;51.412;5.436;2023-07-29T14:17:49;2.78;;;1.77;;
74044;SDS011;62389;51.412;5.436;2023-07-29T14:20:14;3.45;;;1.70;;
74044;SDS011;62389;51.412;5.436;2023-07-29T14:22:40;2.53;;;1.40;;
74044;SDS011;62389;51.412;5.436;2023-07-29T14:25:05;2.60;;;1.55;;
74044;SDS011;62389;51.412;5.436;2023-07-29T14:29:57;2.83;;;1.20;;
74044;SDS011;62389;51.412;5.436;2023-07-29T14:32:22;2.20;;;1.50;;
74044;SDS011;62389;51.412;5.436;2023-07-29T14:34:47;3.17;;;1.80;;
74044;SDS011;62389;51.412;5.436;2023-07-29T14:37:14;3.22;;;1.88;;
74044;SDS011;62389;51.412;5.436;2023-07-29T14:39:39;2.88;;;1.70;;
74044;SDS011;62389;51.412;5.436;2023-07-29T14:42:04;2.83;;;1.60;;
74044;SDS011;62389;51.412;5.436;2023-07-29T14:44:30;2.67;;;1.60;;
74044;SDS011;62389;51.412;5.436;2023-07-29T14:46:55;2.53;;;1.60;;
74044;SDS011;62389;51.412;5.436;2023-07-29T14:49:21;2.45;;;1.65;;
74044;SDS011;62389;51.412;5.436;2023-07-29T14:51:46;7.55;;;1.73;;
74044;SDS011;62389;51.412;5.436;2023-07-29T14:54:12;3.28;;;1.80;;
74044;SDS011;62389;51.412;5.436;2023-07-29T14:56:37;2.30;;;1.42;;
74044;SDS011;62389;51.412;5.436;2023-07-29T14:59:03;4.50;;;1.60;;
74044;SDS011;62389;51.412;5.436;2023-07-29T15:01:28;5.15;;;1.80;;
74044;SDS011;62389;51.412;5.436;2023-07-29T15:03:53;3.13;;;1.52;;
74044;SDS011;62389;51.412;5.436;2023-07-29T15:06:19;2.78;;;1.67;;
74044;SDS011;62389;51.412;5.436;2023-07-29T15:08:44;2.97;;;1.70;;
74044;SDS011;62389;51.412;5.436;2023-07-29T15:11:09;3.58;;;1.58;;